createdAt,value
2023-02-04T00:01:06.352Z,73.14
2023-02-04T00:03:33.013Z,72.54
2023-02-04T00:06:02.185Z,72.68
2023-02-04T00:08:30.529Z,72.57
2023-02-04T00:10:57.481Z,71.59
2023-02-04T00:13:25.375Z,70.33
2023-02-04T00:15:52.297Z,70.20
2023-02-04T00:18:20.859Z,69.45
2023-02-04T00:20:48.762Z,69.10
2023-02-04T00:23:15.460Z,68.08
2023-02-04T00:25:42.201Z,70.58
2023-02-04T00:28:09.270Z,70.70
2023-02-04T00:30:35.961Z,70.69
2023-02-04T00:33:02.913Z,72.03
2023-02-04T00:35:29.828Z,72.07
2023-02-04T00:37:58.262Z,72.42
2023-02-04T00:40:25.284Z,69.57
2023-02-04T00:43:24.289Z,71.95
2023-02-04T00:48:32.952Z,73.62
2023-02-04T00:51:23.842Z,72.40
2023-02-04T00:53:50.900Z,73.50
2023-02-04T00:56:18.528Z,74.83
2023-02-04T00:58:45.452Z,75.06
2023-02-04T01:01:12.601Z,75.67
2023-02-04T01:03:39.668Z,75.52
2023-02-04T01:06:06.570Z,75.75
2023-02-04T01:08:33.481Z,75.24
2023-02-04T01:11:00.873Z,75.75
2023-02-04T01:13:31.144Z,74.54
2023-02-04T01:16:00.198Z,74.91
2023-02-04T01:18:28.535Z,74.95
2023-02-04T01:20:55.488Z,74.56
2023-02-04T01:23:22.469Z,74.64
2023-02-04T01:25:51.730Z,74.73
2023-02-04T01:28:19.165Z,73.65
2023-02-04T01:30:46.278Z,72.51
2023-02-04T01:33:13.264Z,73.44
2023-02-04T01:35:40.180Z,72.85
2023-02-04T01:38:07.161Z,72.70
2023-02-04T01:40:34.613Z,72.05
2023-02-04T01:43:05.261Z,71.01
2023-02-04T01:45:32.368Z,71.28
2023-02-04T01:48:00.947Z,71.18
2023-02-04T01:50:27.859Z,71.65
2023-02-04T01:52:54.689Z,71.81
2023-02-04T01:55:24.422Z,72.68
2023-02-04T01:57:52.222Z,71.36
2023-02-04T02:00:32.311Z,71.96
2023-02-04T02:02:59.551Z,72.01
2023-02-04T02:05:28.966Z,73.11
2023-02-04T02:07:57.069Z,72.39
2023-02-04T02:10:23.935Z,72.15
2023-02-04T02:13:04.648Z,71.18
2023-02-04T02:15:31.709Z,72.42
2023-02-04T02:17:58.629Z,72.12
2023-02-04T02:20:25.846Z,72.49
2023-02-04T02:23:04.617Z,72.91
2023-02-04T02:25:31.501Z,73.27
2023-02-04T02:27:58.627Z,72.44
2023-02-04T02:30:25.461Z,73.07
2023-02-04T02:32:52.230Z,74.30
2023-02-04T02:35:19.072Z,73.00
2023-02-04T02:37:46.058Z,72.85
2023-02-04T02:40:14.452Z,73.02
2023-02-04T02:42:42.892Z,73.26
2023-02-04T02:45:24.949Z,72.52
2023-02-04T02:47:51.808Z,73.30
2023-02-04T02:50:21.413Z,71.90
2023-02-04T02:52:48.263Z,72.06
2023-02-04T02:55:16.961Z,72.19
2023-02-04T02:57:56.322Z,71.32
2023-02-04T03:00:26.997Z,69.03
2023-02-04T03:03:18.391Z,71.28
2023-02-04T03:05:46.844Z,72.90
2023-02-04T03:08:14.337Z,72.80
2023-02-04T03:10:41.542Z,74.38
2023-02-04T03:13:10.504Z,74.48
2023-02-04T03:15:38.735Z,73.50
2023-02-04T03:18:05.593Z,73.01
2023-02-04T03:20:32.778Z,73.18
2023-02-04T03:22:59.741Z,74.80
2023-02-04T03:25:26.842Z,72.07
2023-02-04T03:27:57.232Z,69.18
2023-02-04T03:30:24.205Z,69.40
2023-02-04T03:32:52.088Z,71.09
2023-02-04T03:35:19.109Z,69.72
2023-02-04T03:37:48.506Z,70.36
2023-02-04T03:40:16.139Z,72.69
2023-02-04T03:42:43.237Z,73.74
2023-02-04T03:45:10.831Z,76.48
2023-02-04T03:47:37.672Z,76.64
2023-02-04T03:50:05.273Z,77.14
2023-02-04T03:52:32.125Z,76.28
2023-02-04T03:54:59.292Z,75.05
2023-02-04T03:57:26.114Z,75.72
2023-02-04T03:59:53.259Z,75.10
2023-02-04T04:02:20.053Z,74.42
2023-02-04T04:04:46.895Z,73.67
2023-02-04T04:07:13.720Z,75.03
2023-02-04T04:09:40.456Z,73.88
2023-02-04T04:12:07.176Z,72.28
2023-02-04T04:14:34.083Z,69.31
2023-02-04T04:17:01.189Z,67.46
2023-02-04T04:19:28.126Z,68.07
2023-02-04T04:21:55.142Z,68.45
2023-02-04T04:24:22.494Z,68.04
2023-02-04T04:26:49.665Z,70.42
2023-02-04T04:29:16.830Z,72.20
2023-02-04T04:31:44.171Z,72.77
2023-02-04T04:34:11.242Z,77.72
2023-02-04T04:36:38.105Z,76.76
2023-02-04T04:39:04.855Z,77.02
2023-02-04T04:41:31.577Z,76.99
2023-02-04T04:43:59.547Z,76.17
2023-02-04T04:46:26.825Z,76.10
2023-02-04T04:48:54.068Z,75.63
2023-02-04T04:51:20.919Z,75.80
2023-02-04T04:53:47.854Z,75.45
2023-02-04T04:56:14.652Z,76.28
2023-02-04T04:58:41.855Z,75.48
2023-02-04T05:01:08.636Z,75.76
2023-02-04T05:03:35.425Z,75.88
2023-02-04T05:06:03.242Z,75.85
2023-02-04T05:08:30.044Z,75.41
2023-02-04T05:10:56.874Z,74.21
2023-02-04T05:13:23.636Z,73.98
2023-02-04T05:15:50.443Z,75.55
2023-02-04T05:18:17.230Z,74.13
2023-02-04T05:20:44.070Z,74.36
2023-02-04T05:23:10.808Z,73.91
2023-02-04T05:25:37.636Z,74.79
2023-02-04T05:28:04.485Z,75.61
2023-02-04T05:30:31.817Z,75.36
2023-02-04T05:32:58.929Z,75.42
2023-02-04T05:35:25.834Z,75.30
2023-02-04T05:37:52.589Z,76.03
2023-02-04T05:40:19.956Z,75.69
2023-02-04T05:42:46.676Z,75.79
2023-02-04T05:45:16.696Z,76.09
2023-02-04T05:47:44.098Z,76.36
2023-02-04T05:50:10.913Z,76.10
2023-02-04T05:52:38.353Z,76.29
2023-02-04T05:55:05.720Z,76.05
2023-02-04T05:57:33.117Z,76.24
2023-02-04T06:00:02.351Z,76.55
2023-02-04T06:02:37.876Z,76.53
2023-02-04T06:05:04.963Z,75.41
2023-02-04T06:07:31.653Z,75.98
2023-02-04T06:09:59.597Z,75.71
2023-02-04T06:12:27.358Z,75.88
2023-02-04T06:14:54.086Z,75.75
2023-02-04T06:17:21.128Z,76.10
2023-02-04T06:19:48.222Z,75.73
2023-02-04T06:22:15.312Z,75.58
2023-02-04T06:24:42.970Z,75.08
2023-02-04T06:27:10.121Z,76.02
2023-02-04T06:29:36.784Z,76.04
2023-02-04T06:32:03.681Z,75.35
2023-02-04T06:34:30.689Z,75.31
2023-02-04T06:36:57.698Z,75.61
2023-02-04T06:39:27.147Z,75.17
2023-02-04T06:41:53.837Z,75.29
2023-02-04T06:44:21.648Z,75.02
2023-02-04T06:46:48.405Z,74.66
2023-02-04T06:49:15.208Z,74.98
2023-02-04T06:51:42.267Z,74.93
2023-02-04T06:54:09.182Z,74.30
2023-02-04T06:56:36.224Z,74.61
2023-02-04T06:59:03.508Z,74.14
2023-02-04T07:01:45.635Z,73.95
2023-02-04T07:04:13.581Z,73.69
2023-02-04T07:06:41.590Z,73.42
2023-02-04T07:09:08.712Z,73.12
2023-02-04T07:11:35.834Z,72.82
2023-02-04T07:14:02.888Z,72.31
2023-02-04T07:16:30.706Z,72.40
2023-02-04T07:19:02.655Z,71.96
2023-02-04T07:21:30.060Z,72.94
2023-02-04T07:23:57.133Z,72.71
2023-02-04T07:26:26.730Z,72.65
2023-02-04T07:29:07.093Z,72.90
2023-02-04T07:31:37.073Z,73.77
2023-02-04T07:34:06.858Z,73.87
2023-02-04T07:36:34.018Z,74.17
2023-02-04T07:39:01.262Z,75.07
2023-02-04T07:41:28.170Z,75.17
2023-02-04T07:43:56.150Z,75.75
2023-02-04T07:46:23.460Z,76.25
2023-02-04T07:48:51.273Z,77.72
2023-02-04T07:51:18.302Z,77.69
2023-02-04T07:53:46.353Z,77.93
2023-02-04T07:56:13.389Z,77.67
2023-02-04T07:58:40.554Z,77.17
2023-02-04T08:01:07.480Z,78.26
2023-02-04T08:03:36.073Z,77.59
2023-02-04T08:06:06.662Z,78.41
2023-02-04T08:08:34.424Z,78.75
2023-02-04T08:11:03.581Z,79.13
2023-02-04T08:13:33.469Z,79.20
2023-02-04T08:16:02.606Z,79.33
2023-02-04T08:18:35.857Z,79.55
2023-02-04T08:21:02.951Z,79.86
2023-02-04T08:23:30.841Z,79.82
2023-02-04T08:25:59.073Z,80.27
2023-02-04T08:28:27.249Z,80.15
2023-02-04T08:30:54.402Z,79.43
2023-02-04T08:33:21.537Z,79.60
2023-02-04T08:35:51.425Z,79.17
2023-02-04T08:38:18.268Z,78.55
2023-02-04T08:40:45.534Z,78.72
2023-02-04T08:43:12.676Z,78.42
2023-02-04T08:45:40.538Z,78.44
2023-02-04T08:48:07.410Z,78.16
2023-02-04T08:50:36.472Z,77.21
2023-02-04T08:53:04.310Z,77.54
2023-02-04T08:55:36.095Z,77.06
2023-02-04T08:58:08.936Z,76.99
2023-02-04T09:00:36.198Z,75.96
2023-02-04T09:03:03.885Z,75.25
2023-02-04T09:05:30.980Z,74.03
2023-02-04T09:07:58.502Z,72.65
2023-02-04T09:10:31.768Z,71.34
2023-02-04T09:12:58.633Z,68.23
2023-02-04T09:15:28.436Z,66.14
2023-02-04T09:17:58.046Z,64.68
2023-02-04T09:20:25.164Z,63.31
2023-02-04T09:22:54.729Z,61.99
2023-02-04T09:25:25.368Z,62.35
2023-02-04T09:28:02.162Z,60.54
2023-02-04T09:30:29.936Z,58.80
2023-02-04T09:32:57.214Z,58.41
2023-02-04T09:35:24.671Z,60.38
2023-02-04T09:37:52.068Z,62.04
2023-02-04T09:40:22.925Z,60.78
2023-02-04T09:42:51.379Z,61.80
2023-02-04T09:45:26.279Z,59.77
2023-02-04T09:47:59.345Z,61.46
2023-02-04T09:50:26.931Z,60.44
2023-02-04T09:52:55.752Z,66.26
2023-02-04T09:55:32.594Z,64.56
2023-02-04T09:58:02.083Z,63.48
2023-02-04T10:00:29.903Z,63.98
2023-02-04T10:03:04.080Z,67.84
2023-02-04T10:05:33.267Z,67.52
2023-02-04T10:08:02.266Z,66.85
2023-02-04T10:10:36.587Z,67.23
2023-02-04T10:13:03.666Z,67.26
2023-02-04T10:15:30.756Z,66.13
2023-02-04T10:18:07.179Z,67.62
2023-02-04T10:20:58.078Z,69.19
2023-02-04T10:23:46.564Z,68.28
2023-02-04T10:26:16.050Z,68.67
2023-02-04T10:28:42.970Z,69.94
2023-02-04T10:31:33.369Z,68.21
2023-02-04T10:34:32.822Z,67.44
2023-02-04T10:37:02.325Z,67.60
2023-02-04T10:39:30.131Z,66.76
2023-02-04T10:44:39.702Z,67.51
2023-02-04T10:47:17.725Z,65.52
2023-02-04T10:50:07.133Z,67.73
2023-02-04T10:52:39.710Z,66.89
2023-02-04T10:55:19.174Z,67.54
2023-02-04T10:57:47.525Z,68.59
2023-02-04T11:00:22.212Z,68.04
2023-02-04T11:03:04.276Z,66.94
2023-02-04T11:05:32.613Z,66.45
2023-02-04T11:07:59.449Z,66.95
2023-02-04T11:10:31.836Z,66.53
2023-02-04T11:12:59.862Z,66.36
2023-02-04T11:15:45.122Z,65.66
2023-02-04T11:18:23.986Z,67.04
2023-02-04T11:20:52.472Z,66.49
2023-02-04T11:23:28.517Z,66.17
2023-02-04T11:26:17.873Z,65.06
2023-02-04T11:29:02.805Z,65.41
2023-02-04T11:31:35.248Z,65.91
2023-02-04T11:34:20.224Z,64.02
2023-02-04T11:37:02.225Z,65.46
2023-02-04T11:39:37.280Z,64.24
2023-02-04T11:42:06.064Z,65.97
2023-02-04T11:44:33.569Z,65.90
2023-02-04T11:47:00.654Z,64.72
2023-02-04T11:49:27.474Z,64.19
2023-02-04T11:52:07.378Z,64.72
2023-02-04T11:54:35.619Z,64.23
2023-02-04T11:57:02.457Z,63.38
2023-02-04T11:59:29.171Z,63.15
2023-02-04T12:02:06.565Z,63.02
2023-02-04T12:04:33.387Z,64.91
2023-02-04T12:07:02.076Z,65.20
2023-02-04T12:09:30.004Z,64.69
2023-02-04T12:12:00.769Z,65.16
2023-02-04T12:14:35.113Z,64.97
2023-02-04T12:17:01.945Z,65.51
2023-02-04T12:19:28.777Z,65.91
2023-02-04T12:21:55.853Z,64.69
2023-02-04T12:24:23.887Z,64.97
2023-02-04T12:26:50.574Z,64.65
2023-02-04T12:29:17.357Z,65.41
2023-02-04T12:31:44.351Z,65.51
2023-02-04T12:34:11.061Z,64.86
2023-02-04T12:36:37.880Z,65.03
2023-02-04T12:39:04.691Z,63.37
2023-02-04T12:41:31.390Z,62.70
2023-02-04T12:43:58.077Z,62.61
2023-02-04T12:50:05.950Z,64.39
2023-02-04T12:52:32.704Z,62.22
2023-02-04T12:54:59.839Z,63.97
2023-02-04T13:01:14.816Z,62.81
2023-02-04T13:03:42.414Z,62.69
2023-02-04T13:06:09.581Z,62.42
2023-02-04T13:08:36.277Z,62.44
2023-02-04T13:11:03.552Z,61.85
2023-02-04T13:13:30.266Z,62.16
2023-02-04T13:15:56.992Z,61.11
2023-02-04T13:18:23.766Z,61.26
2023-02-04T13:20:50.598Z,62.15
2023-02-04T13:23:18.358Z,61.77
2023-02-04T13:25:45.229Z,61.99
2023-02-04T13:28:12.383Z,62.66
2023-02-04T13:30:39.509Z,62.47
2023-02-04T13:33:06.587Z,62.09
2023-02-04T13:35:33.698Z,62.42
2023-02-04T13:38:00.786Z,63.04
2023-02-04T13:40:27.548Z,62.38
2023-02-04T13:42:54.302Z,61.56
2023-02-04T13:45:21.370Z,61.37
2023-02-04T13:47:52.608Z,61.55
2023-02-04T13:50:19.321Z,60.69
2023-02-04T13:52:46.066Z,60.45
2023-02-04T13:55:12.807Z,60.84
2023-02-04T13:57:39.487Z,61.69
2023-02-04T14:00:06.894Z,61.73
2023-02-04T14:02:33.678Z,61.62
2023-02-04T14:05:00.404Z,62.21
2023-02-04T14:07:27.446Z,63.62
2023-02-04T14:09:54.198Z,62.22
2023-02-04T14:12:21.257Z,62.29
2023-02-04T14:14:48.018Z,62.30
2023-02-04T14:17:14.716Z,62.70
2023-02-04T14:19:41.556Z,62.53
2023-02-04T14:22:08.699Z,62.32
2023-02-04T14:24:35.506Z,62.17
2023-02-04T14:27:02.454Z,63.75
2023-02-04T14:29:29.193Z,62.59
2023-02-04T14:31:56.223Z,62.58
2023-02-04T14:34:23.468Z,63.36
2023-02-04T14:36:50.514Z,63.25
2023-02-04T14:39:17.543Z,63.73
2023-02-04T14:44:25.287Z,63.64
2023-02-04T14:46:52.596Z,63.27
2023-02-04T14:49:19.504Z,62.60
2023-02-04T14:51:46.614Z,62.44
2023-02-04T14:54:13.525Z,61.26
2023-02-04T14:56:40.285Z,62.83
2023-02-04T14:59:07.228Z,63.97
2023-02-04T15:01:34.139Z,64.07
2023-02-04T15:04:01.176Z,64.09
2023-02-04T15:06:28.307Z,65.02
2023-02-04T15:08:55.009Z,63.97
2023-02-04T15:11:21.697Z,64.50
2023-02-04T15:13:49.538Z,64.41
2023-02-04T15:16:16.411Z,64.70
2023-02-04T15:18:43.336Z,64.40
2023-02-04T15:21:10.100Z,64.05
2023-02-04T15:23:36.836Z,65.16
2023-02-04T15:26:04.003Z,65.11
2023-02-04T15:28:33.493Z,65.63
2023-02-04T15:31:00.676Z,64.73
2023-02-04T15:33:27.639Z,65.26
2023-02-04T15:35:54.364Z,65.29
2023-02-04T15:38:21.586Z,65.52
2023-02-04T15:40:48.319Z,66.25
2023-02-04T15:43:15.185Z,66.46
2023-02-04T15:45:41.929Z,66.61
2023-02-04T15:48:08.793Z,67.53
2023-02-04T15:50:36.059Z,67.44
2023-02-04T15:53:03.309Z,67.76
2023-02-04T15:55:30.898Z,67.75
2023-02-04T15:57:58.337Z,68.22
2023-02-04T16:00:25.286Z,68.33
2023-02-04T16:02:53.742Z,68.45
2023-02-04T16:05:20.793Z,68.81
2023-02-04T16:07:49.365Z,68.88
2023-02-04T16:10:19.837Z,69.22
2023-02-04T16:12:48.120Z,69.18
2023-02-04T16:15:16.085Z,69.81
2023-02-04T16:17:44.749Z,69.93
2023-02-04T16:22:53.932Z,70.94
2023-02-04T16:25:21.009Z,70.63
2023-02-04T16:27:52.989Z,70.63
2023-02-04T16:30:21.109Z,71.57
2023-02-04T16:32:49.119Z,71.62
2023-02-04T16:35:18.290Z,71.87
2023-02-04T16:37:45.371Z,72.16
2023-02-04T16:40:13.611Z,72.43
2023-02-04T16:42:40.595Z,72.70
2023-02-04T16:45:08.456Z,73.07
2023-02-04T16:47:43.663Z,73.21
2023-02-04T16:50:10.558Z,73.31
2023-02-04T16:52:38.717Z,73.67
2023-02-04T16:55:06.547Z,73.78
2023-02-04T16:57:34.412Z,73.80
2023-02-04T17:00:02.408Z,73.93
2023-02-04T17:02:35.927Z,74.25
2023-02-04T17:05:03.781Z,74.36
2023-02-04T17:07:33.435Z,74.55
2023-02-04T17:10:00.732Z,74.88
2023-02-04T17:12:27.941Z,75.10
2023-02-04T17:14:54.718Z,75.59
2023-02-04T17:17:21.612Z,75.75
2023-02-04T17:19:48.470Z,75.83
2023-02-04T17:22:18.633Z,76.05
2023-02-04T17:24:45.524Z,75.98
2023-02-04T17:27:13.223Z,76.01
2023-02-04T17:29:41.394Z,76.43
2023-02-04T17:32:10.271Z,76.26
2023-02-04T17:34:37.962Z,76.44
2023-02-04T17:37:04.869Z,76.61
2023-02-04T17:39:31.602Z,76.06
2023-02-04T17:42:01.742Z,77.00
2023-02-04T17:44:28.586Z,77.46
2023-02-04T17:46:55.512Z,77.40
2023-02-04T17:49:23.744Z,77.47
2023-02-04T17:51:50.539Z,77.34
2023-02-04T17:54:17.611Z,77.96
2023-02-04T17:56:44.651Z,78.14
2023-02-04T17:59:11.341Z,77.97
2023-02-04T18:01:39.758Z,77.91
2023-02-04T18:04:14.238Z,78.46
2023-02-04T18:06:41.161Z,78.82
2023-02-04T18:09:15.938Z,78.50
2023-02-04T18:11:43.620Z,78.57
2023-02-04T18:14:16.385Z,78.74
2023-02-04T18:16:43.119Z,78.78
2023-02-04T18:19:26.310Z,78.56
2023-02-04T18:21:53.634Z,78.72
2023-02-04T18:24:36.250Z,78.59
2023-02-04T18:27:16.924Z,78.35
2023-02-04T18:29:45.253Z,78.73
2023-02-04T18:32:20.982Z,78.26
2023-02-04T18:34:55.281Z,78.52
2023-02-04T18:37:32.128Z,78.71
2023-02-04T18:40:12.886Z,79.41
2023-02-04T18:42:44.533Z,79.54
2023-02-04T18:45:29.343Z,79.75
2023-02-04T18:48:16.405Z,79.27
2023-02-04T18:50:43.594Z,79.27
2023-02-04T18:53:13.630Z,79.46
2023-02-04T18:55:47.576Z,79.12
2023-02-04T18:58:18.314Z,79.47
2023-02-04T19:00:48.894Z,79.10
2023-02-04T19:03:26.775Z,78.77
2023-02-04T19:05:54.601Z,78.58
2023-02-04T19:08:25.351Z,78.84
2023-02-04T19:10:54.104Z,78.86
2023-02-04T19:13:41.262Z,79.24
2023-02-04T19:16:17.380Z,79.27
2023-02-04T19:18:45.573Z,79.74
2023-02-04T19:21:24.487Z,79.92
2023-02-04T19:24:14.575Z,80.09
2023-02-04T19:26:47.774Z,80.18
2023-02-04T19:29:40.838Z,80.27
2023-02-04T19:32:28.778Z,79.94
2023-02-04T19:34:59.748Z,79.38
2023-02-04T19:37:28.750Z,79.14
2023-02-04T19:39:56.665Z,78.94
2023-02-04T19:42:36.942Z,79.08
2023-02-04T19:45:20.587Z,79.63
2023-02-04T19:47:47.629Z,79.74
2023-02-04T19:50:14.537Z,80.33
2023-02-04T19:52:48.627Z,80.64
2023-02-04T19:55:18.462Z,80.71
2023-02-04T19:57:45.766Z,81.04
2023-02-04T20:00:34.597Z,81.56
2023-02-04T20:03:02.479Z,81.45
2023-02-04T20:05:32.012Z,80.97
2023-02-04T20:08:25.038Z,80.72
2023-02-04T20:10:51.728Z,80.36
2023-02-04T20:13:19.645Z,80.63
2023-02-04T20:15:47.264Z,80.69
2023-02-04T20:18:17.973Z,80.38
2023-02-04T20:20:45.510Z,80.79
2023-02-04T20:23:26.345Z,80.42
2023-02-04T20:25:53.122Z,80.16
2023-02-04T20:28:50.206Z,80.37
2023-02-04T20:31:27.693Z,80.75
2023-02-04T20:33:56.453Z,80.64
2023-02-04T20:36:30.250Z,80.37
2023-02-04T20:39:09.987Z,79.56
2023-02-04T20:41:37.320Z,79.25
2023-02-04T20:44:16.284Z,79.44
2023-02-04T20:46:43.177Z,79.59
2023-02-04T20:49:23.561Z,78.66
2023-02-04T20:51:51.630Z,78.65
2023-02-04T20:54:18.535Z,78.67
2023-02-04T20:56:45.627Z,78.40
2023-02-04T20:59:15.030Z,77.59
2023-02-04T21:01:42.635Z,76.88
2023-02-04T21:04:19.091Z,76.96
2023-02-04T21:06:45.909Z,76.69
2023-02-04T21:09:26.816Z,77.08
2023-02-04T21:11:54.610Z,76.77
2023-02-04T21:14:22.170Z,76.79
2023-02-04T21:16:49.055Z,76.73
2023-02-04T21:19:18.638Z,77.01
2023-02-04T21:21:48.213Z,76.78
2023-02-04T21:24:14.941Z,76.70
2023-02-04T21:26:41.719Z,77.08
2023-02-04T21:29:08.585Z,76.79
2023-02-04T21:31:35.454Z,76.20
2023-02-04T21:34:02.444Z,76.51
2023-02-04T21:36:29.307Z,76.15
2023-02-04T21:38:56.580Z,75.70
2023-02-04T21:41:23.764Z,75.92
2023-02-04T21:43:50.894Z,76.54
2023-02-04T21:46:17.998Z,76.48
2023-02-04T21:48:45.106Z,76.14
2023-02-04T21:51:13.827Z,76.10
2023-02-04T21:53:41.081Z,76.31
2023-02-04T21:56:08.862Z,76.49
2023-02-04T21:58:36.335Z,76.60
2023-02-04T22:01:03.435Z,77.55
2023-02-04T22:03:30.385Z,77.55
2023-02-04T22:05:57.234Z,77.49
2023-02-04T22:08:24.057Z,77.81
2023-02-04T22:10:50.989Z,78.48
2023-02-04T22:13:18.007Z,78.61
2023-02-04T22:15:44.963Z,78.94
2023-02-04T22:18:11.923Z,79.74
2023-02-04T22:20:39.605Z,79.93
2023-02-04T22:23:06.906Z,80.04
2023-02-04T22:25:33.950Z,79.84
2023-02-04T22:28:00.993Z,79.94
2023-02-04T22:30:29.341Z,79.65
2023-02-04T22:32:56.250Z,79.98
2023-02-04T22:35:23.283Z,79.88
2023-02-04T22:37:50.556Z,79.28
2023-02-04T22:40:18.694Z,79.55
2023-02-04T22:42:45.790Z,79.20
2023-02-04T22:45:12.829Z,79.04
2023-02-04T22:47:39.542Z,78.65
2023-02-04T22:50:06.566Z,78.53
2023-02-04T22:52:33.309Z,78.29
2023-02-04T22:55:00.152Z,78.42
2023-02-04T22:57:27.195Z,78.39
2023-02-04T22:59:54.237Z,78.37
2023-02-04T23:02:22.546Z,78.05
2023-02-04T23:04:49.753Z,77.76
2023-02-04T23:07:16.452Z,77.29
2023-02-04T23:09:43.197Z,77.72
2023-02-04T23:12:09.977Z,77.89
2023-02-04T23:14:37.055Z,78.12
2023-02-04T23:17:04.057Z,78.07
2023-02-04T23:19:31.818Z,78.22
2023-02-04T23:21:58.841Z,78.40
2023-02-04T23:24:26.173Z,78.74
2023-02-04T23:26:52.950Z,78.72
2023-02-04T23:29:19.887Z,78.53
2023-02-04T23:31:46.748Z,77.29
2023-02-04T23:34:13.514Z,77.94
2023-02-04T23:36:40.265Z,78.71
2023-02-04T23:39:07.257Z,77.82
2023-02-04T23:41:35.135Z,77.97
2023-02-04T23:44:01.994Z,78.33
2023-02-04T23:46:29.076Z,78.62
2023-02-04T23:48:55.918Z,78.39
2023-02-04T23:51:28.706Z,77.24
2023-02-04T23:53:55.703Z,76.95
2023-02-04T23:56:22.560Z,75.81
2023-02-04T23:58:49.650Z,77.76
